Time;durP1;ratioP1;P1;durP2;ratioP2;P2;SDS_P1;SDS_P2;PMS_P1;PMS_P2;Temp;Humidity;BMP_temperature;BMP_pressure;BME280_temperature;BME280_humidity;BME280_pressure;Samples;Min_cycle;Max_cycle;Signal;HPM_P1;HPM_P2
2023/11/24 00:01:50;;;;;;;3.30;0.70;;;;;;;6.97;90.80;98603.14;129437;1262;115377;-59
2023/11/24 00:04:52;;;;;;;2.70;0.70;;;;;;;6.92;90.61;98611.84;129551;1259;114802;-60
2023/11/24 00:07:54;;;;;;;2.40;1.30;;;;;;;6.87;90.75;98621.91;129552;1281;114686;-69
2023/11/24 00:10:58;;;;;;;1.20;0.80;;;;;;;6.80;90.66;98623.69;129718;1281;114848;-60
2023/11/24 00:14:00;;;;;;;3.30;0.60;;;;;;;6.73;90.89;98617.94;129434;1262;115386;-58
2023/11/24 00:17:04;;;;;;;2.00;0.70;;;;;;;6.66;90.61;98619.23;129432;1279;114798;-59
2023/11/24 00:20:10;;;;;;;1.30;0.70;;;;;;;6.60;90.60;98611.12;129447;1263;114747;-59
2023/11/24 00:23:12;;;;;;;2.60;1.10;;;;;;;6.55;90.38;98602.02;129397;1264;128589;-59
2023/11/24 00:26:17;;;;;;;2.10;1.10;;;;;;;6.50;90.57;98598.93;129545;1264;114805;-59
2023/11/24 00:29:21;;;;;;;3.50;0.80;;;;;;;6.43;89.66;98578.95;129511;1266;114753;-59
2023/11/24 00:32:24;;;;;;;2.30;0.50;;;;;;;6.37;89.80;98581.23;129356;1259;114937;-59
2023/11/24 00:35:26;;;;;;;1.00;0.80;;;;;;;6.33;89.95;98578.14;129418;1263;115158;-58
2023/11/24 00:38:28;;;;;;;2.00;0.60;;;;;;;6.30;90.09;98570.14;129438;1264;114825;-60
2023/11/24 00:41:30;;;;;;;4.90;1.00;;;;;;;6.26;89.86;98567.02;129463;1259;114731;-60
2023/11/24 00:44:32;;;;;;;3.40;0.80;;;;;;;6.23;90.21;98566.83;129363;1282;116348;-59
2023/11/24 00:47:34;;;;;;;3.80;0.60;;;;;;;6.21;90.06;98579.73;129447;1279;114788;-58
2023/11/24 00:50:36;;;;;;;4.00;0.90;;;;;;;6.18;90.14;98579.00;129511;1260;115223;-58
2023/11/24 00:53:38;;;;;;;4.50;1.10;;;;;;;6.17;90.07;98585.48;129574;1264;115123;-58
2023/11/24 00:56:40;;;;;;;3.90;0.80;;;;;;;6.15;90.09;98584.52;129409;1265;115229;-59
2023/11/24 00:59:44;;;;;;;2.30;0.90;;;;;;;6.14;89.96;98602.83;129571;1259;114722;-58
2023/11/24 01:02:45;;;;;;;4.50;1.00;;;;;;;6.12;89.85;98595.35;129194;1268;127386;-58
2023/11/24 01:05:53;;;;;;;3.40;1.00;;;;;;;6.10;89.88;98604.48;129498;1282;114824;-59
2023/11/24 01:08:55;;;;;;;2.80;1.00;;;;;;;6.10;90.02;98595.25;129534;1264;115093;-58
2023/11/24 01:11:57;;;;;;;3.70;0.60;;;;;;;6.09;89.69;98593.20;129468;1274;114643;-59
2023/11/24 01:15:00;;;;;;;2.90;1.10;;;;;;;6.08;89.85;98593.59;129575;1282;116500;-58
2023/11/24 01:18:03;;;;;;;5.10;0.90;;;;;;;6.08;89.93;98566.98;129454;1264;115071;-58
2023/11/24 01:21:06;;;;;;;5.50;0.80;;;;;;;6.09;89.80;98563.95;129511;1275;114727;-58
2023/11/24 01:24:08;;;;;;;3.00;1.00;;;;;;;6.11;89.92;98557.80;129414;1260;114774;-58
2023/11/24 01:27:11;;;;;;;2.70;1.30;;;;;;;6.11;89.96;98543.98;129419;1263;114729;-58
2023/11/24 01:30:15;;;;;;;4.30;0.90;;;;;;;6.11;90.00;98550.02;129590;1264;114723;-58
2023/11/24 01:33:17;;;;;;;1.60;0.80;;;;;;;6.13;90.08;98549.73;129296;1259;114928;-56
2023/11/24 01:36:20;;;;;;;3.10;0.70;;;;;;;6.14;90.20;98561.00;129521;1260;114736;-59
2023/11/24 01:39:22;;;;;;;3.80;0.90;;;;;;;6.15;90.31;98577.03;129480;1260;115593;-59
2023/11/24 01:42:24;;;;;;;6.20;2.40;;;;;;;6.17;90.35;98572.35;129579;1259;115382;-58
2023/11/24 01:45:26;;;;;;;1.50;0.80;;;;;;;6.19;90.32;98567.44;129390;1282;115152;-58
2023/11/24 01:48:29;;;;;;;9.90;1.10;;;;;;;6.21;90.48;98561.09;129486;1274;114824;-60
2023/11/24 01:51:35;;;;;;;5.20;1.60;;;;;;;6.24;90.37;98558.62;129419;1262;114808;-59
2023/11/24 01:54:37;;;;;;;2.50;1.20;;;;;;;6.27;90.65;98548.19;129235;1268;114738;-60
2023/11/24 01:57:41;;;;;;;3.10;1.20;;;;;;;6.30;90.64;98559.17;129477;1279;114732;-59
2023/11/24 02:00:43;;;;;;;5.50;1.30;;;;;;;6.32;90.72;98573.42;129532;1265;114837;-60
2023/11/24 02:03:45;;;;;;;3.90;1.20;;;;;;;6.33;90.51;98565.73;129526;1263;115242;-59
2023/11/24 02:06:48;;;;;;;6.60;1.10;;;;;;;6.34;90.48;98554.28;129628;1280;114750;-58
2023/11/24 02:09:50;;;;;;;5.70;1.50;;;;;;;6.37;90.62;98545.11;129509;1265;115005;-60
2023/11/24 02:12:52;;;;;;;6.30;1.40;;;;;;;6.38;90.46;98546.41;129461;1264;115430;-58
2023/11/24 02:15:54;;;;;;;9.30;1.40;;;;;;;6.38;90.75;98544.82;129529;1259;118451;-59
2023/11/24 02:18:56;;;;;;;10.50;1.70;;;;;;;6.37;90.77;98552.02;129388;1265;128383;-59
2023/11/24 02:21:58;;;;;;;5.60;1.50;;;;;;;6.37;90.49;98558.77;129391;1259;114690;-58
2023/11/24 02:25:00;;;;;;;8.40;1.40;;;;;;;6.35;90.57;98550.68;129454;1260;114785;-59
2023/11/24 02:28:03;;;;;;;4.30;1.30;;;;;;;6.33;90.23;98538.95;129258;1270;115187;-59
2023/11/24 02:31:07;;;;;;;6.40;1.20;;;;;;;6.32;90.22;98544.88;129523;1265;114630;-58
2023/11/24 02:34:09;;;;;;;6.40;1.30;;;;;;;6.30;90.18;98536.28;129625;1276;115171;-59
2023/11/24 02:37:11;;;;;;;7.60;1.20;;;;;;;6.29;90.28;98543.98;129395;1274;114835;-58
2023/11/24 02:40:13;;;;;;;6.60;2.40;;;;;;;6.27;89.97;98533.30;129524;1265;114642;-59
2023/11/24 02:43:15;;;;;;;7.00;1.50;;;;;;;6.25;89.77;98533.44;129397;1279;115236;-59
2023/11/24 02:46:18;;;;;;;6.50;1.40;;;;;;;6.21;89.05;98534.48;129515;1263;115200;-59
2023/11/24 02:49:20;;;;;;;8.10;1.90;;;;;;;6.17;89.38;98539.02;129606;1260;115195;-58
2023/11/24 02:52:22;;;;;;;9.10;1.90;;;;;;;6.11;88.98;98532.83;129282;1259;114902;-59
2023/11/24 02:55:27;;;;;;;4.20;1.20;;;;;;;6.04;88.87;98530.01;129480;1265;114780;-58
2023/11/24 02:58:31;;;;;;;6.90;1.50;;;;;;;5.98;88.82;98522.21;129395;1282;128557;-59
2023/11/24 03:01:33;;;;;;;6.20;1.00;;;;;;;5.93;88.61;98524.77;129462;1282;114746;-59
2023/11/24 03:04:35;;;;;;;12.60;1.80;;;;;;;5.88;88.61;98523.86;129423;1265;115173;-58
2023/11/24 03:07:38;;;;;;;4.90;1.40;;;;;;;5.85;88.86;98531.85;129585;1282;114781;-59
2023/11/24 03:10:40;;;;;;;8.10;1.70;;;;;;;5.81;89.04;98555.61;129386;1265;115142;-58
2023/11/24 03:13:44;;;;;;;10.40;1.50;;;;;;;5.78;89.27;98576.15;129540;1260;114720;-59
2023/11/24 03:16:47;;;;;;;9.80;1.80;;;;;;;5.74;89.29;98584.00;129502;1260;114714;-58
2023/11/24 03:19:49;;;;;;;9.00;1.30;;;;;;;5.67;89.14;98574.30;129537;1263;115164;-59
2023/11/24 03:22:52;;;;;;;4.90;1.20;;;;;;;5.58;88.98;98574.48;129422;1261;114755;-58
2023/11/24 03:25:53;;;;;;;10.30;1.30;;;;;;;5.48;89.12;98576.07;129516;1259;114721;-58
2023/11/24 03:28:56;;;;;;;5.70;0.90;;;;;;;5.37;88.96;98566.61;129375;1265;114734;-58
2023/11/24 03:31:58;;;;;;;7.50;1.40;;;;;;;5.25;88.95;98565.32;129389;1259;114728;-59
2023/11/24 03:35:00;;;;;;;5.10;1.20;;;;;;;5.13;89.03;98563.51;129437;1259;114801;-58
2023/11/24 03:38:02;;;;;;;4.20;1.30;;;;;;;5.03;89.34;98559.48;129233;1276;128529;-59
2023/11/24 03:41:05;;;;;;;7.00;1.70;;;;;;;4.93;89.08;98553.46;129422;1264;115376;-58
2023/11/24 03:44:07;;;;;;;6.00;1.80;;;;;;;4.83;89.29;98555.06;129520;1265;114796;-60
2023/11/24 03:47:10;;;;;;;3.70;0.90;;;;;;;4.73;89.13;98558.08;129529;1264;115351;-59
2023/11/24 03:50:13;;;;;;;6.00;1.20;;;;;;;4.63;89.37;98556.48;129421;1265;115091;-58
2023/11/24 03:53:20;;;;;;;8.20;1.40;;;;;;;4.54;89.55;98553.95;129264;1282;114851;-58
2023/11/24 03:56:24;;;;;;;8.70;1.40;;;;;;;4.45;89.77;98550.91;129248;1282;128572;-59
2023/11/24 03:59:26;;;;;;;7.60;1.70;;;;;;;4.36;89.84;98556.28;129383;1265;114786;-59
2023/11/24 04:02:28;;;;;;;6.40;1.40;;;;;;;4.29;90.06;98557.91;129365;1260;115533;-58
2023/11/24 04:05:31;;;;;;;7.60;1.40;;;;;;;4.21;89.94;98549.81;129354;1263;114728;-58
2023/11/24 04:08:32;;;;;;;9.70;1.70;;;;;;;4.14;89.92;98556.92;129403;1259;114855;-58
2023/11/24 04:11:35;;;;;;;7.80;1.50;;;;;;;4.06;89.99;98558.70;129428;1265;115657;-58
2023/11/24 04:14:37;;;;;;;11.90;1.90;;;;;;;3.99;89.93;98562.64;129573;1282;114783;-59
2023/11/24 04:17:40;;;;;;;8.60;1.80;;;;;;;3.91;90.05;98554.37;129530;1282;114797;-59
2023/11/24 04:20:42;;;;;;;11.40;1.80;;;;;;;3.85;90.14;98554.64;129404;1265;114720;-63
2023/11/24 04:23:44;;;;;;;6.70;1.80;;;;;;;3.80;90.09;98556.14;129454;1265;114688;-58
2023/11/24 04:26:46;;;;;;;8.80;2.40;;;;;;;3.75;90.21;98552.66;129207;1259;114828;-60
2023/11/24 04:29:48;;;;;;;8.10;1.80;;;;;;;3.70;90.27;98555.75;129525;1260;115371;-60
2023/11/24 04:32:50;;;;;;;10.70;2.00;;;;;;;3.63;90.43;98550.43;129527;1259;114702;-58
2023/11/24 04:35:55;;;;;;;11.50;2.60;;;;;;;3.58;90.55;98550.30;129245;1282;114816;-59
2023/11/24 04:38:57;;;;;;;10.40;2.60;;;;;;;3.53;90.52;98546.50;129375;1278;127834;-58
2023/11/24 04:41:59;;;;;;;10.30;2.00;;;;;;;3.48;90.56;98549.95;129494;1265;114799;-58
2023/11/24 04:45:01;;;;;;;14.10;2.20;;;;;;;3.44;90.81;98552.27;129568;1265;114685;-58
2023/11/24 04:48:03;;;;;;;9.10;1.90;;;;;;;3.39;90.84;98555.65;129303;1279;114790;-59
2023/11/24 04:51:05;;;;;;;7.80;1.60;;;;;;;3.35;90.98;98551.24;129474;1265;115332;-58
2023/11/24 04:54:08;;;;;;;8.50;1.80;;;;;;;3.30;90.99;98547.27;129526;1278;114757;-58
2023/11/24 04:57:10;;;;;;;12.50;2.20;;;;;;;3.25;91.03;98548.20;129559;1265;115181;-58
2023/11/24 05:00:13;;;;;;;9.20;2.40;;;;;;;3.20;91.13;98548.10;129503;1267;129102;-58
2023/11/24 05:03:15;;;;;;;10.10;2.40;;;;;;;3.15;91.04;98547.11;129628;1265;115348;-59
2023/11/24 05:06:18;;;;;;;13.40;2.20;;;;;;;3.09;91.19;98541.55;129514;1265;114736;-58
2023/11/24 05:09:20;;;;;;;18.00;3.60;;;;;;;3.05;91.38;98544.23;129553;1259;114879;-58
2023/11/24 05:12:23;;;;;;;14.60;2.60;;;;;;;3.01;91.45;98538.25;129529;1259;114771;-58
2023/11/24 05:15:25;;;;;;;12.20;2.60;;;;;;;2.97;91.76;98535.23;129402;1265;114707;-58
2023/11/24 05:18:27;;;;;;;15.60;2.60;;;;;;;2.94;91.93;98542.05;129483;1263;114712;-58
2023/11/24 05:21:29;;;;;;;12.50;2.50;;;;;;;2.92;91.95;98546.05;129403;1282;129914;-58
2023/11/24 05:24:31;;;;;;;21.40;3.20;;;;;;;2.88;91.89;98545.34;129422;1282;114745;-58
2023/11/24 05:27:34;;;;;;;15.30;3.20;;;;;;;2.86;91.96;98542.28;129458;1282;114670;-58
2023/11/24 05:30:36;;;;;;;15.60;3.20;;;;;;;2.83;91.95;98543.98;129141;1266;114789;-58
2023/11/24 05:33:39;;;;;;;24.20;3.60;;;;;;;2.82;91.81;98541.22;129342;1260;114713;-58
2023/11/24 05:36:44;;;;;;;15.20;2.70;;;;;;;2.81;91.92;98540.21;129476;1263;115220;-58
2023/11/24 05:39:46;;;;;;;14.50;2.10;;;;;;;2.81;91.91;98542.68;129380;1282;128958;-58
2023/11/24 05:42:49;;;;;;;10.70;1.90;;;;;;;2.84;91.79;98547.33;129395;1265;114767;-58
2023/11/24 05:45:51;;;;;;;10.90;2.00;;;;;;;2.87;91.82;98556.34;129504;1263;115238;-58
2023/11/24 05:48:53;;;;;;;10.20;1.90;;;;;;;2.90;91.79;98557.08;129370;1265;114816;-59
2023/11/24 05:51:56;;;;;;;7.60;2.10;;;;;;;2.92;91.64;98553.84;129457;1259;114718;-59
2023/11/24 05:54:59;;;;;;;11.80;1.70;;;;;;;2.91;91.48;98558.08;129424;1265;115135;-58
2023/11/24 05:58:05;;;;;;;8.20;2.00;;;;;;;2.89;91.30;98565.92;129448;1260;114827;-58
2023/11/24 06:01:08;;;;;;;10.00;1.60;;;;;;;2.88;91.33;98565.31;129214;1282;115306;-58
2023/11/24 06:04:10;;;;;;;5.80;1.70;;;;;;;2.85;91.12;98566.47;129477;1282;114768;-59
2023/11/24 06:07:12;;;;;;;7.70;1.70;;;;;;;2.83;90.99;98571.32;129297;1267;114853;-59
2023/11/24 06:10:14;;;;;;;7.10;1.40;;;;;;;2.81;90.98;98570.72;129429;1259;114814;-58
2023/11/24 06:13:16;;;;;;;7.40;1.60;;;;;;;2.79;91.00;98556.73;129355;1282;114889;-59
2023/11/24 06:16:18;;;;;;;9.40;1.40;;;;;;;2.76;90.99;98558.95;129360;1259;114774;-59
2023/11/24 06:19:20;;;;;;;18.60;2.30;;;;;;;2.72;90.75;98560.00;129572;1259;114719;-58
2023/11/24 06:22:22;;;;;;;5.90;1.30;;;;;;;2.69;90.88;98561.02;129413;1260;115276;-59
2023/11/24 06:25:24;;;;;;;7.40;1.30;;;;;;;2.67;90.80;98558.12;129445;1264;114704;-59
2023/11/24 06:28:26;;;;;;;8.40;1.60;;;;;;;2.65;90.64;98557.90;129555;1263;114707;-60
2023/11/24 06:31:29;;;;;;;4.20;1.60;;;;;;;2.61;90.72;98556.43;129302;1264;114806;-59
2023/11/24 06:34:31;;;;;;;5.90;1.40;;;;;;;2.58;90.77;98563.09;129359;1265;114822;-59
2023/11/24 06:37:33;;;;;;;5.30;1.40;;;;;;;2.55;90.90;98563.40;129419;1259;114829;-58
2023/11/24 06:40:35;;;;;;;8.40;2.10;;;;;;;2.53;90.76;98565.09;129525;1265;114714;-59
2023/11/24 06:43:38;;;;;;;6.30;1.80;;;;;;;2.52;90.79;98570.25;129423;1282;115249;-58
2023/11/24 06:46:39;;;;;;;10.50;1.60;;;;;;;2.51;90.95;98572.77;129443;1260;114829;-59
2023/11/24 06:49:42;;;;;;;8.00;1.60;;;;;;;2.49;90.71;98572.84;129415;1260;114691;-58
2023/11/24 06:52:44;;;;;;;8.60;1.60;;;;;;;2.49;90.95;98578.67;129375;1264;114761;-58
2023/11/24 06:55:47;;;;;;;9.90;1.50;;;;;;;2.50;90.97;98582.87;129376;1274;114750;-59
2023/11/24 06:58:54;;;;;;;8.10;2.20;;;;;;;2.51;91.14;98585.44;129499;1260;114716;-59
2023/11/24 07:01:56;;;;;;;13.60;1.80;;;;;;;2.53;91.18;98582.71;129332;1282;129052;-58
2023/11/24 07:04:58;;;;;;;10.30;1.70;;;;;;;2.56;91.18;98582.57;129344;1265;114759;-59
2023/11/24 07:08:00;;;;;;;8.80;1.60;;;;;;;2.60;91.19;98582.91;129399;1265;114811;-59
2023/11/24 07:11:04;;;;;;;7.90;1.90;;;;;;;2.66;91.49;98577.02;129263;1268;114812;-58
2023/11/24 07:14:06;;;;;;;13.20;2.00;;;;;;;2.73;91.61;98573.53;129500;1282;114831;-58
2023/11/24 07:17:08;;;;;;;8.40;1.90;;;;;;;2.79;91.49;98574.85;129502;1275;114755;-58
2023/11/24 07:20:11;;;;;;;6.50;1.80;;;;;;;2.85;91.37;98574.21;129431;1265;114719;-58
2023/11/24 07:23:13;;;;;;;10.20;2.10;;;;;;;2.94;91.52;98572.60;129601;1263;128871;-59
2023/11/24 07:26:16;;;;;;;17.10;2.40;;;;;;;3.03;91.67;98576.76;129464;1267;114796;-59
2023/11/24 07:29:21;;;;;;;11.10;1.70;;;;;;;3.13;91.75;98571.18;129489;1263;114713;-58
2023/11/24 07:32:28;;;;;;;13.70;2.00;;;;;;;3.25;91.52;98568.67;129174;1268;116393;-59
2023/11/24 07:35:30;;;;;;;15.80;2.20;;;;;;;3.39;91.49;98562.91;129198;1267;114812;-58
2023/11/24 07:38:32;;;;;;;8.90;1.70;;;;;;;3.54;91.64;98556.35;129353;1263;114752;-58
2023/11/24 07:41:34;;;;;;;8.90;1.90;;;;;;;3.71;91.63;98549.17;129523;1260;114714;-58
2023/11/24 07:44:37;;;;;;;7.20;2.20;;;;;;;3.91;91.78;98552.73;129262;1277;115356;-59
2023/11/24 07:47:40;;;;;;;8.60;2.10;;;;;;;4.14;91.78;98552.15;129348;1282;114723;-58
2023/11/24 07:50:42;;;;;;;8.30;1.40;;;;;;;4.26;91.53;98554.86;129389;1263;114714;-59
2023/11/24 07:53:45;;;;;;;12.30;2.60;;;;;;;4.32;90.97;98528.43;129440;1265;114885;-59
2023/11/24 07:56:46;;;;;;;8.30;2.80;;;;;;;4.31;90.63;98530.40;129439;1260;114756;-59
2023/11/24 07:59:49;;;;;;;13.90;2.70;;;;;;;4.33;90.59;98523.74;129362;1259;114757;-59
2023/11/24 08:02:50;;;;;;;5.70;1.80;;;;;;;4.43;90.90;98515.79;129487;1259;114750;-59
2023/11/24 08:05:53;;;;;;;10.00;2.70;;;;;;;4.62;90.92;98511.61;129325;1282;115241;-60
2023/11/24 08:08:56;;;;;;;13.40;3.10;;;;;;;4.76;90.45;98503.96;129395;1265;115239;-59
2023/11/24 08:11:58;;;;;;;7.00;1.70;;;;;;;4.79;90.47;98498.30;129492;1264;114815;-59
2023/11/24 08:15:00;;;;;;;11.40;2.20;;;;;;;4.77;90.03;98506.93;129491;1264;114793;-58
2023/11/24 08:18:02;;;;;;;9.40;1.80;;;;;;;4.72;89.55;98509.48;129340;1261;114719;-59
2023/11/24 08:21:05;;;;;;;10.10;2.30;;;;;;;4.66;89.42;98516.36;129374;1265;114972;-61
2023/11/24 08:24:09;;;;;;;6.40;1.70;;;;;;;4.60;89.47;98512.78;129482;1273;114716;-59
2023/11/24 08:27:11;;;;;;;9.00;2.60;;;;;;;4.62;89.59;98511.63;129213;1261;114783;-58
2023/11/24 08:30:14;;;;;;;12.30;5.80;;;;;;;4.69;89.86;98514.27;129376;1273;114750;-58
2023/11/24 08:33:16;;;;;;;9.60;2.90;;;;;;;4.74;89.79;98513.80;129473;1273;114741;-58
2023/11/24 08:36:18;;;;;;;6.10;3.10;;;;;;;4.79;89.79;98510.91;129216;1268;114900;-59
2023/11/24 08:39:21;;;;;;;5.70;1.80;;;;;;;4.82;89.93;98508.57;129375;1274;114730;-59
2023/11/24 08:42:23;;;;;;;8.30;2.20;;;;;;;4.81;89.53;98499.95;129398;1273;114755;-59
2023/11/24 08:45:26;;;;;;;8.10;2.20;;;;;;;4.80;89.45;98502.69;129440;1264;114822;-59
2023/11/24 08:48:28;;;;;;;7.10;1.70;;;;;;;4.81;89.72;98500.70;129338;1267;115228;-58
2023/11/24 08:51:30;;;;;;;9.90;2.30;;;;;;;4.83;89.92;98499.31;129382;1280;114714;-59
2023/11/24 08:54:32;;;;;;;8.10;2.70;;;;;;;4.84;89.76;98500.52;129403;1274;114787;-59
2023/11/24 08:57:35;;;;;;;9.30;2.80;;;;;;;4.84;89.78;98504.77;126647;1265;3631566;-58
2023/11/24 09:00:37;;;;;;;6.10;2.60;;;;;;;4.85;89.53;98497.09;129354;1265;114857;-59
2023/11/24 09:03:39;;;;;;;8.40;2.50;;;;;;;4.89;89.95;98499.91;129314;1265;114729;-58
2023/11/24 09:06:41;;;;;;;5.60;1.80;;;;;;;4.98;90.31;98501.14;129420;1267;115162;-58
2023/11/24 09:09:43;;;;;;;10.40;1.90;;;;;;;5.17;90.56;98497.64;129081;1281;115461;-58
2023/11/24 09:12:45;;;;;;;6.30;1.80;;;;;;;5.35;90.44;98495.73;129322;1277;114643;-58
2023/11/24 09:15:49;;;;;;;4.10;1.50;;;;;;;5.55;90.44;98491.42;129435;1259;114791;-66
2023/11/24 09:18:52;;;;;;;9.20;2.60;;;;;;;5.77;90.39;98492.44;129452;1273;114709;-66
2023/11/24 09:21:55;;;;;;;12.80;3.70;;;;;;;5.93;90.10;98479.41;129339;1265;115317;-66
2023/11/24 09:25:00;;;;;;;7.80;3.70;;;;;;;6.08;90.16;98471.67;129450;1266;114785;-66
2023/11/24 09:28:02;;;;;;;10.10;2.80;;;;;;;6.20;89.49;98470.77;129317;1267;115239;-67
2023/11/24 09:31:08;;;;;;;9.70;2.60;;;;;;;6.27;89.36;98475.66;129423;1271;115251;-68
2023/11/24 09:34:11;;;;;;;8.90;3.10;;;;;;;6.32;88.88;98478.16;129379;1266;114869;-67
2023/11/24 09:37:14;;;;;;;8.50;3.00;;;;;;;6.34;88.37;98484.46;129427;1273;115221;-67
2023/11/24 09:40:22;;;;;;;12.60;4.30;;;;;;;6.35;87.78;98489.20;129461;1273;115564;-70
2023/11/24 09:43:25;;;;;;;10.80;3.20;;;;;;;6.37;87.70;98478.44;129449;1279;115548;-69
2023/11/24 09:46:27;;;;;;;9.10;2.60;;;;;;;6.42;87.35;98470.66;129646;1263;115049;-69
2023/11/24 09:49:29;;;;;;;11.80;3.00;;;;;;;6.46;86.77;98465.30;129501;1263;115231;-68
2023/11/24 09:52:33;;;;;;;12.00;2.60;;;;;;;6.51;86.62;98462.80;129491;1273;115045;-70
2023/11/24 09:55:35;;;;;;;23.00;10.60;;;;;;;6.53;85.87;98452.23;129801;1277;114776;-66
2023/11/24 09:58:36;;;;;;;26.50;11.70;;;;;;;6.55;86.13;98453.91;129295;1264;114789;-66
2023/11/24 10:01:39;;;;;;;42.10;18.50;;;;;;;6.60;86.16;98448.30;129504;1263;114726;-68
2023/11/24 10:04:41;;;;;;;18.10;6.00;;;;;;;6.67;85.83;98445.33;129387;1282;116476;-69
2023/11/24 10:07:50;;;;;;;71.10;28.60;;;;;;;6.78;85.93;98438.95;129332;1274;114787;-69
2023/11/24 10:10:52;;;;;;;32.60;12.70;;;;;;;6.86;85.49;98437.41;129567;1273;114931;-69
2023/11/24 10:13:57;;;;;;;78.20;29.00;;;;;;;6.91;85.39;98432.27;129657;1264;114753;-70
2023/11/24 10:16:59;;;;;;;49.60;19.50;;;;;;;6.97;85.00;98422.31;129710;1261;128781;-63
2023/11/24 10:20:10;;;;;;;51.60;20.30;;;;;;;6.94;84.22;98419.98;129413;1275;114715;-65
2023/11/24 10:23:12;;;;;;;36.40;15.10;;;;;;;6.88;84.03;98422.35;129143;1282;114922;-66
2023/11/24 10:26:16;;;;;;;28.80;11.60;;;;;;;6.84;83.74;98423.88;129495;1277;114842;-63
2023/11/24 10:29:23;;;;;;;23.40;9.90;;;;;;;6.80;84.10;98423.59;129567;1276;114730;-69
2023/11/24 10:32:25;;;;;;;12.80;4.50;;;;;;;6.77;83.64;98413.48;129167;1282;128324;-69
2023/11/24 10:35:27;;;;;;;12.80;4.60;;;;;;;6.72;83.18;98413.46;129409;1279;114818;-67
2023/11/24 10:38:32;;;;;;;9.80;3.50;;;;;;;6.68;82.72;98412.61;129427;1266;115107;-70
2023/11/24 10:41:37;;;;;;;;;;;;;;;6.70;82.85;98411.45;129330;1275;114835;-68
2023/11/24 10:44:43;;;;;;;8.60;2.50;;;;;;;6.69;82.44;98413.64;129509;1264;114762;-70
2023/11/24 10:48:09;;;;;;;11.10;3.30;;;;;;;6.64;81.92;98410.38;129219;1269;114944;-69
2023/11/24 10:51:17;;;;;;;;;;;;;;;6.59;82.39;98406.28;129283;1280;128045;-70
2023/11/24 10:54:25;;;;;;;6.10;1.90;;;;;;;6.55;82.00;98397.85;129756;1264;116280;-63
2023/11/24 10:57:32;;;;;;;9.40;3.00;;;;;;;6.51;82.07;98394.91;129916;1265;114747;-71
2023/11/24 11:00:36;;;;;;;17.50;2.90;;;;;;;6.53;82.36;98396.39;129741;1264;116346;-69
2023/11/24 11:03:39;;;;;;;10.40;2.00;;;;;;;6.56;82.47;98392.13;129361;1276;114824;-68
2023/11/24 11:06:45;;;;;;;11.30;2.00;;;;;;;6.55;81.88;98382.44;129449;1264;114809;-70
2023/11/24 11:09:48;;;;;;;8.20;2.00;;;;;;;6.51;81.98;98376.45;129443;1261;115248;-67
2023/11/24 11:12:51;;;;;;;9.20;2.50;;;;;;;6.50;82.19;98378.16;129427;1261;115357;-68
2023/11/24 11:15:53;;;;;;;11.00;2.40;;;;;;;6.49;82.13;98378.02;129403;1261;115160;-67
2023/11/24 11:18:56;;;;;;;8.00;2.70;;;;;;;6.45;81.91;98383.41;129471;1264;114776;-69
2023/11/24 11:22:00;;;;;;;12.90;1.80;;;;;;;6.40;81.90;98385.46;129386;1273;114756;-66
2023/11/24 11:25:26;;;;;;;5.70;1.70;;;;;;;6.37;82.17;98375.90;129447;1264;114763;-68
2023/11/24 11:28:36;;;;;;;13.40;3.00;;;;;;;6.33;82.13;98365.90;129368;1276;114638;-68
2023/11/24 11:31:38;;;;;;;9.60;2.40;;;;;;;6.28;82.28;98355.05;129408;1279;114787;-68
2023/11/24 11:34:40;;;;;;;9.20;2.40;;;;;;;6.22;82.15;98354.55;129704;1261;114727;-68
2023/11/24 11:37:42;;;;;;;12.50;2.20;;;;;;;6.15;81.92;98353.55;129433;1273;114754;-68
2023/11/24 11:40:44;;;;;;;8.20;2.20;;;;;;;6.13;82.11;98351.16;129254;1282;128642;-68
2023/11/24 11:43:53;;;;;;;5.50;1.70;;;;;;;6.13;81.75;98345.38;129409;1280;114841;-68
2023/11/24 11:47:16;;;;;;;8.70;2.30;;;;;;;6.13;81.64;98343.59;129263;1273;114846;-69
2023/11/24 11:50:24;;;;;;;14.20;2.50;;;;;;;6.16;81.41;98340.02;129418;1264;114812;-69
2023/11/24 11:53:29;;;;;;;9.20;2.00;;;;;;;6.22;81.23;98341.77;129230;1267;114752;-67
2023/11/24 11:56:31;;;;;;;6.00;2.10;;;;;;;6.28;80.88;98343.88;129371;1275;128915;-68
2023/11/24 11:59:34;;;;;;;7.30;1.90;;;;;;;6.44;81.28;98336.48;129409;1264;115098;-66
2023/11/24 12:02:36;;;;;;;11.80;2.30;;;;;;;6.64;81.23;98336.11;129457;1280;114768;-68
2023/11/24 12:05:38;;;;;;;4.90;1.70;;;;;;;6.78;80.48;98344.41;129440;1264;114739;-67
2023/11/24 12:08:40;;;;;;;10.40;2.00;;;;;;;6.82;80.24;98353.71;129094;1260;114914;-69
2023/11/24 12:11:42;;;;;;;3.60;1.50;;;;;;;6.78;80.35;98365.17;129305;1273;114792;-68
2023/11/24 12:14:48;;;;;;;3.80;1.10;;;;;;;6.58;79.39;98366.80;129855;1260;115651;-68
2023/11/24 12:17:53;;;;;;;4.30;1.40;;;;;;;6.36;79.69;98362.19;129077;1282;127829;-66
2023/11/24 12:20:55;;;;;;;4.30;1.40;;;;;;;6.19;79.71;98365.22;129374;1261;115221;-66
2023/11/24 12:23:58;;;;;;;4.90;1.20;;;;;;;6.04;80.18;98364.86;129440;1260;114796;-66
2023/11/24 12:27:01;;;;;;;4.30;1.40;;;;;;;5.91;80.41;98376.29;129478;1261;115561;-67
2023/11/24 12:30:04;;;;;;;5.90;2.40;;;;;;;5.81;80.76;98373.50;129550;1264;114794;-66
2023/11/24 12:33:15;;;;;;;7.30;3.80;;;;;;;5.76;81.05;98378.20;129222;1260;114833;-66
2023/11/24 12:36:18;;;;;;;6.00;2.30;;;;;;;5.73;81.28;98371.31;129380;1282;128972;-65
2023/11/24 12:39:34;;;;;;;6.40;1.60;;;;;;;5.69;81.31;98367.35;129226;1276;114811;-66
2023/11/24 12:42:37;;;;;;;8.30;1.90;;;;;;;5.63;81.34;98365.05;129318;1272;115159;-69
2023/11/24 12:45:43;;;;;;;9.50;1.90;;;;;;;5.60;81.47;98361.69;129489;1260;116524;-70
2023/11/24 12:48:47;;;;;;;5.80;2.80;;;;;;;5.56;81.71;98362.95;129212;1267;114906;-66
2023/11/24 12:51:49;;;;;;;9.30;2.40;;;;;;;5.52;81.58;98360.94;129764;1282;129722;-67
2023/11/24 12:54:52;;;;;;;9.60;2.10;;;;;;;5.49;81.76;98354.00;129204;1266;114909;-67
2023/11/24 12:57:54;;;;;;;4.90;1.90;;;;;;;5.47;81.88;98349.85;129809;1261;115129;-67
2023/11/24 13:00:57;;;;;;;9.00;4.10;;;;;;;5.45;81.80;98349.09;129754;1267;114756;-67
2023/11/24 13:04:03;;;;;;;9.60;2.70;;;;;;;5.46;82.10;98348.52;129722;1283;114722;-67
2023/11/24 13:07:05;;;;;;;9.30;2.70;;;;;;;5.46;82.28;98347.23;129701;1263;114753;-67
2023/11/24 13:10:10;;;;;;;10.70;3.30;;;;;;;5.48;82.42;98341.46;129734;1275;114808;-67
2023/11/24 13:13:15;;;;;;;;;;;;;;;5.54;82.45;98339.39;129722;1264;114831;-67
2023/11/24 13:16:18;;;;;;;15.30;2.80;;;;;;;5.56;82.45;98337.98;129953;1264;116346;-67
2023/11/24 13:19:22;;;;;;;7.60;2.90;;;;;;;5.54;82.11;98329.96;129810;1262;114728;-66
2023/11/24 13:22:24;;;;;;;10.20;2.40;;;;;;;5.54;82.55;98328.38;129545;1279;115007;-66
2023/11/24 13:25:28;;;;;;;9.80;2.80;;;;;;;5.58;82.61;98323.73;129781;1262;114729;-67
2023/11/24 13:28:30;;;;;;;7.50;2.30;;;;;;;5.60;82.48;98314.75;129748;1264;115255;-66
2023/11/24 13:31:34;;;;;;;10.20;2.50;;;;;;;5.61;82.45;98318.23;130081;1260;114725;-65
2023/11/24 13:34:36;;;;;;;7.80;2.30;;;;;;;5.62;82.16;98319.02;129760;1267;115168;-65
2023/11/24 13:37:38;;;;;;;12.30;3.10;;;;;;;5.62;82.09;98323.29;129733;1262;114802;-66
2023/11/24 13:40:41;;;;;;;9.00;2.90;;;;;;;5.64;82.52;98316.45;129912;1259;114741;-66
2023/11/24 13:43:43;;;;;;;7.50;2.90;;;;;;;5.75;82.83;98304.08;129632;1262;115357;-65
2023/11/24 13:46:49;;;;;;;10.70;2.50;;;;;;;5.90;83.14;98304.05;129414;1264;114741;-65
2023/11/24 13:49:51;;;;;;;5.30;2.10;;;;;;;6.06;82.81;98298.29;129509;1281;115170;-66
2023/11/24 13:52:56;;;;;;;8.30;2.60;;;;;;;6.18;82.48;98300.91;129353;1281;115227;-64
2023/11/24 13:55:59;;;;;;;8.70;3.40;;;;;;;6.19;81.47;98306.01;129665;1281;114697;-65
2023/11/24 13:59:02;;;;;;;9.20;2.80;;;;;;;6.14;81.15;98305.24;129782;1262;115368;-66
2023/11/24 14:02:05;;;;;;;10.50;2.50;;;;;;;6.09;81.15;98297.41;129734;1264;114798;-66
2023/11/24 14:05:08;;;;;;;7.00;3.10;;;;;;;6.07;80.99;98298.06;129857;1259;114807;-65
2023/11/24 14:08:10;;;;;;;8.20;2.50;;;;;;;6.06;80.88;98292.06;129961;1262;114817;-65
2023/11/24 14:11:12;;;;;;;11.20;3.10;;;;;;;6.05;80.53;98296.42;129918;1262;115372;-66